createdAt,value
2023-02-25T00:13:18.269Z,0.01
2023-02-25T00:27:25.852Z,0
2023-02-25T00:42:26.222Z,0
2023-02-25T00:57:25.669Z,0.02
2023-02-25T01:12:25.775Z,0
2023-02-25T01:27:26.045Z,0.11
2023-02-25T01:42:25.335Z,0.06
2023-02-25T01:57:25.495Z,0.07
2023-02-25T02:12:26.358Z,0
2023-02-25T02:57:25.842Z,0
2023-02-25T03:12:27.050Z,0
2023-02-25T03:27:25.637Z,0
2023-02-25T03:42:26.065Z,0.22
2023-02-25T03:57:26.263Z,0.03
2023-02-25T04:12:26.747Z,0
2023-02-25T04:27:26.185Z,7.86
2023-02-25T04:57:26.069Z,21.41
2023-02-25T05:12:25.798Z,16.97
2023-02-25T05:27:25.543Z,11.28
2023-02-25T05:42:25.972Z,4.08
2023-02-25T05:57:25.498Z,2.54
2023-02-25T06:12:26.079Z,2.31
2023-02-25T06:27:25.681Z,0.76
2023-02-25T06:42:26.069Z,1.04
2023-02-25T06:57:25.633Z,1.77
2023-02-25T07:12:26.077Z,3.13
2023-02-25T07:27:25.617Z,4.07
2023-02-25T07:42:26.017Z,4.16
2023-02-25T07:57:26.170Z,4.78
2023-02-25T08:12:25.485Z,4.49
2023-02-25T08:27:26.069Z,22.81
2023-02-25T08:42:25.563Z,10.93
2023-02-25T08:57:26.164Z,7.4
2023-02-25T09:27:26.125Z,20.73
2023-02-25T09:42:25.743Z,50.87
2023-02-25T09:57:26.050Z,26.77
2023-02-25T10:27:26.244Z,27.39
2023-02-25T10:42:26.118Z,12.47
2023-02-25T10:57:25.981Z,10.32
2023-02-25T11:12:25.586Z,23.01
2023-02-25T11:27:26.617Z,22.22
2023-02-25T11:42:25.620Z,10.66
2023-02-25T11:57:26.151Z,8.11
2023-02-25T12:12:25.799Z,5.91
2023-02-25T12:27:26.061Z,8.08
2023-02-25T12:42:26.759Z,4.3
2023-02-25T12:57:25.706Z,4.7
2023-02-25T13:12:25.690Z,3.32
2023-02-25T13:27:25.426Z,4.98
2023-02-25T13:42:25.731Z,4.11
2023-02-25T13:57:25.608Z,7.62
2023-02-25T14:12:25.938Z,9.46
2023-02-25T14:27:25.820Z,6.85
2023-02-25T14:42:25.610Z,5.62
2023-02-25T14:57:25.862Z,7.66
2023-02-25T15:12:25.336Z,14
2023-02-25T15:27:26.175Z,8.48
2023-02-25T15:42:26.216Z,7.94
2023-02-25T15:57:26.679Z,12.93
2023-02-25T16:12:26.359Z,8.14
2023-02-25T16:27:25.612Z,9.27
2023-02-25T16:42:25.452Z,6.14
2023-02-25T16:57:25.761Z,6.69
2023-02-25T17:12:25.943Z,11.25
2023-02-25T17:27:26.104Z,7.04
2023-02-25T17:42:25.893Z,20.3
2023-02-25T17:57:25.879Z,8.53
2023-02-25T18:12:26.073Z,6.88
2023-02-25T18:27:26.043Z,6.66
2023-02-25T18:42:25.300Z,6.8
2023-02-25T18:57:25.325Z,6.59
2023-02-25T19:12:27.089Z,4.39
2023-02-25T19:27:25.240Z,4.43
2023-02-25T19:42:26.107Z,3.54
2023-02-25T19:57:26.264Z,3.12
2023-02-25T20:12:26.159Z,3.75
2023-02-25T20:27:25.934Z,6.51
2023-02-25T20:42:25.870Z,2.94
2023-02-25T20:57:25.680Z,3.48
2023-02-25T21:27:25.421Z,6.55
2023-02-25T21:42:25.329Z,6.07
2023-02-25T21:57:26.096Z,5.17
2023-02-25T22:12:25.868Z,4.12
2023-02-25T22:27:25.282Z,6.58
2023-02-25T22:42:26.018Z,2.48
2023-02-25T22:57:26.048Z,2.13
2023-02-25T23:12:30.950Z,4.18
2023-02-25T23:27:26.044Z,5.92
2023-02-25T23:42:25.753Z,3.97
2023-02-25T23:57:25.212Z,0.99
